Time;durP1;ratioP1;P1;durP2;ratioP2;P2;SDS_P1;SDS_P2;PMS_P1;PMS_P2;Temp;Humidity;BMP_temperature;BMP_pressure;BME280_temperature;BME280_humidity;BME280_pressure;Samples;Min_cycle;Max_cycle;Signal;HPM_P1;HPM_P2
2022/12/09 00:01:06;;;;;;;22.60;16.33;;;7.30;99.90;;;;;;5032394;28;20464;-63
2022/12/09 00:03:32;;;;;;;22.37;17.10;;;7.30;99.90;;;;;;5032572;28;20428;-63
2022/12/09 00:05:58;;;;;;;21.40;17.03;;;7.30;99.90;;;;;;5031892;28;20442;-63
2022/12/09 00:08:23;;;;;;;18.50;15.67;;;7.30;99.90;;;;;;5031305;28;20523;-63
2022/12/09 00:10:49;;;;;;;19.93;15.07;;;7.30;99.90;;;;;;5032823;28;20677;-63
2022/12/09 00:13:15;;;;;;;21.50;15.97;;;7.30;99.90;;;;;;5031260;28;20189;-66
2022/12/09 00:15:41;;;;;;;21.17;16.43;;;7.30;99.90;;;;;;5030955;28;20188;-63
2022/12/09 00:18:08;;;;;;;21.73;17.70;;;7.30;99.90;;;;;;5031512;28;20211;-63
2022/12/09 00:20:34;;;;;;;22.73;17.83;;;7.30;99.90;;;;;;5031156;28;20440;-63
2022/12/09 00:22:59;;;;;;;21.93;17.00;;;7.30;99.90;;;;;;5029445;28;20822;-63
2022/12/09 00:25:25;;;;;;;19.00;16.10;;;7.30;99.90;;;;;;5030969;28;20942;-63
2022/12/09 00:27:50;;;;;;;21.23;15.50;;;7.30;99.90;;;;;;5030400;28;20185;-63
2022/12/09 00:30:16;;;;;;;23.00;15.50;;;7.30;99.90;;;;;;5026360;28;20215;-64
2022/12/09 00:32:42;;;;;;;20.67;16.30;;;7.30;99.90;;;;;;5014872;28;20182;-63
2022/12/09 00:35:08;;;;;;;20.73;15.30;;;7.30;99.90;;;;;;5022246;28;20275;-65
2022/12/09 00:37:36;;;;;;;18.30;15.70;;;7.30;99.90;;;;;;5031957;28;20166;-63
2022/12/09 00:40:02;;;;;;;22.27;16.17;;;7.30;99.90;;;;;;5031825;28;20190;-63
2022/12/09 00:42:28;;;;;;;22.97;16.50;;;7.30;99.90;;;;;;5030725;28;21016;-63
2022/12/09 00:44:53;;;;;;;20.43;16.27;;;7.30;99.90;;;;;;5031258;28;20565;-63
2022/12/09 00:47:19;;;;;;;21.93;16.40;;;7.30;99.90;;;;;;5029801;28;20247;-63
2022/12/09 00:49:45;;;;;;;23.07;16.70;;;7.30;99.90;;;;;;5031607;28;20213;-63
2022/12/09 00:52:10;;;;;;;18.63;15.63;;;7.30;99.90;;;;;;5031969;28;20665;-63
2022/12/09 00:54:36;;;;;;;21.70;16.27;;;7.40;99.90;;;;;;5029076;28;20301;-63
2022/12/09 00:57:02;;;;;;;21.73;16.87;;;7.40;99.90;;;;;;5032204;28;20235;-63
2022/12/09 00:59:27;;;;;;;23.60;16.27;;;7.40;99.90;;;;;;5029314;28;20192;-63
2022/12/09 01:01:53;;;;;;;20.70;16.30;;;7.40;99.90;;;;;;5031650;28;20244;-63
2022/12/09 01:04:19;;;;;;;22.50;16.20;;;7.40;99.90;;;;;;5029099;28;20186;-63
2022/12/09 01:06:44;;;;;;;22.97;17.47;;;7.40;99.90;;;;;;5031367;28;20182;-63
2022/12/09 01:09:11;;;;;;;21.97;16.53;;;7.40;99.90;;;;;;5030748;28;20178;-63
2022/12/09 01:11:36;;;;;;;25.80;16.60;;;7.40;99.90;;;;;;5030496;28;20303;-63
2022/12/09 01:14:02;;;;;;;22.10;15.87;;;7.40;99.90;;;;;;5028999;28;20511;-63
2022/12/09 01:16:31;;;;;;;23.87;16.27;;;7.40;99.90;;;;;;5028856;28;20272;-63
2022/12/09 01:18:58;;;;;;;20.50;16.20;;;7.40;99.90;;;;;;5030438;28;20522;-64
2022/12/09 01:21:25;;;;;;;21.73;16.80;;;7.40;99.90;;;;;;5029741;28;20435;-63
2022/12/09 01:23:51;;;;;;;22.03;16.07;;;7.40;99.90;;;;;;5030796;28;20476;-64
2022/12/09 01:26:17;;;;;;;22.23;16.20;;;7.40;99.90;;;;;;5030408;28;20429;-66
2022/12/09 01:28:43;;;;;;;21.83;15.80;;;7.40;99.90;;;;;;5030713;28;20900;-63
2022/12/09 01:31:17;;;;;;;21.47;15.20;;;7.30;99.90;;;;;;5028734;28;20216;-64
2022/12/09 01:33:43;;;;;;;21.23;15.87;;;7.30;99.90;;;;;;5030549;28;20189;-64
2022/12/09 01:36:28;;;;;;;21.40;16.20;;;7.30;99.90;;;;;;5029690;28;20435;-64
2022/12/09 01:38:57;;;;;;;24.30;16.77;;;7.30;99.90;;;;;;5030075;28;20427;-64
2022/12/09 01:41:23;;;;;;;21.30;16.73;;;7.30;99.90;;;;;;5029770;28;20401;-65
2022/12/09 01:44:14;;;;;;;18.63;15.33;;;7.30;99.90;;;;;;5029250;28;20472;-64
2022/12/09 01:46:40;;;;;;;22.80;15.77;;;7.30;99.90;;;;;;5042216;28;21286;-64
2022/12/09 01:49:07;;;;;;;22.53;16.73;;;7.30;99.90;;;;;;5029845;28;20459;-64
2022/12/09 01:51:33;;;;;;;24.77;15.87;;;7.20;99.90;;;;;;5028291;28;20484;-64
2022/12/09 01:54:00;;;;;;;24.20;16.80;;;7.30;99.90;;;;;;5030717;28;20439;-64
2022/12/09 01:56:32;;;;;;;21.13;15.70;;;7.30;99.90;;;;;;5031009;28;20407;-64
2022/12/09 01:59:11;;;;;;;19.97;15.30;;;7.30;99.90;;;;;;5031405;28;20790;-64
2022/12/09 02:01:40;;;;;;;21.27;16.93;;;7.30;99.90;;;;;;5030118;28;21361;-64
2022/12/09 02:04:06;;;;;;;26.13;16.63;;;7.30;99.90;;;;;;5030001;28;20510;-66
2022/12/09 02:06:34;;;;;;;22.40;16.60;;;7.20;99.90;;;;;;5029109;28;20436;-64
2022/12/09 02:09:00;;;;;;;22.00;16.80;;;7.20;99.90;;;;;;5028899;28;20484;-64
2022/12/09 02:11:56;;;;;;;27.40;16.53;;;7.20;99.90;;;;;;5032875;28;20536;-64
2022/12/09 02:14:45;;;;;;;24.70;16.90;;;7.20;99.90;;;;;;5032506;28;20276;-67
2022/12/09 02:17:36;;;;;;;24.10;16.67;;;7.20;99.90;;;;;;5023852;28;21006;-64
2022/12/09 02:20:14;;;;;;;25.27;17.90;;;7.20;99.90;;;;;;5032575;28;20473;-64
2022/12/09 02:22:47;;;;;;;24.90;16.40;;;7.30;99.90;;;;;;5014330;28;20460;-64
2022/12/09 02:25:51;;;;;;;21.83;16.30;;;7.30;99.90;;;;;;5032981;28;20542;-64
2022/12/09 02:28:48;;;;;;;22.43;16.83;;;7.30;99.90;;;;;;5034019;28;20436;-64
2022/12/09 02:31:31;;;;;;;22.83;16.37;;;7.30;99.90;;;;;;5032414;28;20502;-66
2022/12/09 02:34:28;;;;;;;23.03;15.87;;;7.30;99.90;;;;;;5019479;28;20488;-64
2022/12/09 02:37:09;;;;;;;25.40;16.97;;;7.30;99.90;;;;;;5034019;28;20439;-64
2022/12/09 02:39:51;;;;;;;24.33;17.53;;;7.30;99.90;;;;;;5030978;28;20427;-64
2022/12/09 02:42:21;;;;;;;23.50;17.13;;;7.30;99.90;;;;;;5033194;28;20442;-64
2022/12/09 02:44:49;;;;;;;26.93;18.00;;;7.30;99.90;;;;;;5032989;28;20455;-64
2022/12/09 02:47:18;;;;;;;26.63;19.20;;;7.30;99.90;;;;;;5033746;28;20427;-64
2022/12/09 02:49:49;;;;;;;23.10;16.37;;;7.30;99.90;;;;;;5030926;28;20463;-64
2022/12/09 02:52:16;;;;;;;23.33;17.90;;;7.30;99.90;;;;;;5034668;28;20454;-64
2022/12/09 02:54:43;;;;;;;22.57;17.30;;;7.20;99.90;;;;;;5031006;28;20780;-64
2022/12/09 02:57:26;;;;;;;21.30;16.90;;;7.30;99.90;;;;;;5033136;28;20405;-64
2022/12/09 02:59:52;;;;;;;20.87;17.10;;;7.30;99.90;;;;;;5031836;28;20459;-64
2022/12/09 03:02:34;;;;;;;21.67;16.17;;;7.20;99.90;;;;;;5032944;28;20467;-64
2022/12/09 03:05:25;;;;;;;23.10;17.13;;;7.20;99.90;;;;;;5032888;28;20803;-64
2022/12/09 03:08:13;;;;;;;26.87;17.37;;;7.20;99.90;;;;;;5016690;28;20438;-64
2022/12/09 03:10:42;;;;;;;25.20;18.03;;;7.20;99.90;;;;;;5028034;28;20503;-64
2022/12/09 03:13:34;;;;;;;23.23;16.90;;;7.20;99.90;;;;;;5030354;28;20467;-64
2022/12/09 03:16:13;;;;;;;25.73;18.00;;;7.20;99.90;;;;;;5027316;28;20788;-64
2022/12/09 03:18:44;;;;;;;25.43;18.20;;;7.10;99.90;;;;;;5018928;28;20841;-64
2022/12/09 03:21:13;;;;;;;26.07;17.73;;;7.20;99.90;;;;;;5032140;28;20434;-64
2022/12/09 03:23:40;;;;;;;22.63;16.80;;;7.20;99.90;;;;;;5030112;28;20476;-64
2022/12/09 03:26:06;;;;;;;24.40;17.20;;;7.20;99.90;;;;;;5030875;28;20557;-64
2022/12/09 03:28:40;;;;;;;24.90;18.00;;;7.10;99.90;;;;;;5032988;28;20491;-64
2022/12/09 03:31:12;;;;;;;22.10;16.33;;;7.10;99.90;;;;;;5032330;28;20215;-64
2022/12/09 03:33:40;;;;;;;24.10;17.20;;;7.10;99.90;;;;;;5030242;28;20431;-64
2022/12/09 03:36:09;;;;;;;25.53;19.30;;;7.10;99.90;;;;;;5031378;28;20431;-64
2022/12/09 03:38:37;;;;;;;22.87;17.63;;;7.10;99.90;;;;;;5032841;28;20412;-64
2022/12/09 03:41:13;;;;;;;22.27;16.93;;;7.10;99.90;;;;;;5031240;28;20484;-64
2022/12/09 03:43:46;;;;;;;25.80;17.60;;;7.00;99.90;;;;;;5030497;28;20515;-64
2022/12/09 03:46:12;;;;;;;27.90;19.07;;;7.00;99.90;;;;;;5031753;28;20436;-65
2022/12/09 03:48:38;;;;;;;26.90;16.77;;;7.00;99.90;;;;;;5030105;28;20417;-65
2022/12/09 03:51:14;;;;;;;23.90;16.63;;;7.00;99.90;;;;;;5030283;28;20529;-64
2022/12/09 03:53:57;;;;;;;26.10;17.50;;;7.00;99.90;;;;;;5029824;28;20184;-64
2022/12/09 03:56:30;;;;;;;25.40;18.87;;;7.00;99.90;;;;;;5032595;28;20409;-64
2022/12/09 03:58:59;;;;;;;27.40;18.17;;;6.90;99.90;;;;;;5031288;28;20803;-64
2022/12/09 04:01:27;;;;;;;25.60;18.00;;;6.90;99.90;;;;;;5030235;28;20417;-67
2022/12/09 04:03:55;;;;;;;29.40;18.07;;;7.00;99.90;;;;;;5031202;28;21029;-64
2022/12/09 04:06:21;;;;;;;27.20;20.40;;;7.00;99.90;;;;;;5032931;28;20432;-64
2022/12/09 04:08:47;;;;;;;24.07;17.43;;;7.00;99.90;;;;;;5031271;28;20438;-64
2022/12/09 04:11:13;;;;;;;27.07;19.57;;;6.90;99.90;;;;;;5031422;28;20462;-64
2022/12/09 04:13:38;;;;;;;27.60;19.67;;;6.90;99.90;;;;;;5030945;28;20694;-64
2022/12/09 04:16:04;;;;;;;25.90;18.80;;;7.00;99.90;;;;;;5030947;28;20261;-64
2022/12/09 04:18:31;;;;;;;27.10;19.30;;;7.00;99.90;;;;;;5030828;28;20182;-67
2022/12/09 04:20:56;;;;;;;23.87;17.33;;;6.90;99.90;;;;;;5031892;28;20435;-64
2022/12/09 04:23:22;;;;;;;22.77;18.70;;;6.90;99.90;;;;;;5028503;28;20508;-64
2022/12/09 04:25:48;;;;;;;24.37;19.70;;;6.90;99.90;;;;;;5029681;28;20189;-64
2022/12/09 04:28:13;;;;;;;26.27;19.13;;;6.90;99.90;;;;;;5031845;28;20180;-64
2022/12/09 04:30:44;;;;;;;29.47;20.97;;;6.90;99.90;;;;;;5028634;28;20226;-64
2022/12/09 04:33:10;;;;;;;24.77;18.53;;;6.90;99.90;;;;;;5030462;28;20187;-64
2022/12/09 04:35:35;;;;;;;28.43;18.60;;;6.80;99.90;;;;;;5030911;28;20459;-64
2022/12/09 04:38:01;;;;;;;25.50;16.63;;;6.80;99.90;;;;;;5032559;28;20195;-64
2022/12/09 04:40:27;;;;;;;27.27;18.73;;;6.80;99.90;;;;;;5031690;28;20191;-67
2022/12/09 04:42:52;;;;;;;27.17;19.67;;;6.80;99.90;;;;;;5031062;28;20177;-65
2022/12/09 04:45:18;;;;;;;24.23;20.13;;;6.80;99.90;;;;;;5032363;28;20283;-64
2022/12/09 04:47:44;;;;;;;26.33;20.23;;;6.80;99.90;;;;;;5030189;28;20187;-65
2022/12/09 04:50:10;;;;;;;26.53;19.20;;;6.80;99.90;;;;;;5031471;28;20210;-65
2022/12/09 04:52:36;;;;;;;26.03;19.30;;;6.80;99.90;;;;;;5030974;28;20660;-64
2022/12/09 04:55:02;;;;;;;25.80;18.77;;;6.80;99.90;;;;;;5031412;28;20455;-64
2022/12/09 04:57:28;;;;;;;25.73;18.00;;;6.80;99.90;;;;;;5030996;28;20169;-67
2022/12/09 04:59:54;;;;;;;27.40;19.33;;;6.90;99.90;;;;;;5031717;28;20419;-65
2022/12/09 05:02:20;;;;;;;26.83;18.97;;;6.90;99.90;;;;;;5030801;28;20484;-64
2022/12/09 05:04:45;;;;;;;26.37;19.50;;;6.80;99.90;;;;;;5030514;28;20423;-64
2022/12/09 05:07:12;;;;;;;23.50;18.30;;;6.90;99.90;;;;;;5032111;28;20695;-64
2022/12/09 05:09:40;;;;;;;25.43;18.80;;;6.90;99.90;;;;;;5030481;28;20200;-64
2022/12/09 05:12:06;;;;;;;24.20;18.27;;;6.90;99.90;;;;;;5031263;28;20527;-64
2022/12/09 05:14:32;;;;;;;26.30;18.33;;;6.80;99.90;;;;;;5030947;28;20493;-67
2022/12/09 05:16:57;;;;;;;25.70;18.40;;;6.80;99.90;;;;;;5030453;28;20457;-64
2022/12/09 05:19:23;;;;;;;23.20;17.10;;;6.80;99.90;;;;;;5031261;28;20183;-64
2022/12/09 05:21:49;;;;;;;23.60;18.23;;;6.90;99.90;;;;;;5029883;28;20181;-64
2022/12/09 05:24:15;;;;;;;24.43;16.63;;;6.80;99.90;;;;;;5032014;28;20180;-64
2022/12/09 05:26:40;;;;;;;22.57;16.87;;;6.80;99.90;;;;;;5030251;28;20195;-64
2022/12/09 05:29:06;;;;;;;32.97;21.40;;;6.80;99.90;;;;;;5031340;28;20234;-64
2022/12/09 05:31:32;;;;;;;37.13;23.00;;;6.70;99.90;;;;;;5031357;28;20504;-67
2022/12/09 05:33:58;;;;;;;27.80;20.17;;;6.60;99.90;;;;;;5030775;28;20540;-64
2022/12/09 05:36:26;;;;;;;24.17;18.80;;;6.60;99.90;;;;;;5024434;28;20238;-63
2022/12/09 05:38:53;;;;;;;29.00;19.07;;;6.60;99.90;;;;;;5030423;28;20795;-63
2022/12/09 05:41:19;;;;;;;25.77;17.50;;;6.70;99.90;;;;;;5012176;28;20447;-63
2022/12/09 05:43:45;;;;;;;27.23;20.40;;;6.60;99.90;;;;;;5023136;28;20793;-63
2022/12/09 05:46:12;;;;;;;25.63;18.53;;;6.70;99.90;;;;;;5034295;28;20427;-63
2022/12/09 05:48:38;;;;;;;31.63;20.67;;;6.70;99.90;;;;;;5031796;28;20430;-63
2022/12/09 05:51:11;;;;;;;25.43;17.40;;;6.60;99.90;;;;;;5032071;28;20464;-63
2022/12/09 05:53:36;;;;;;;26.60;19.00;;;6.60;99.90;;;;;;5034015;28;20520;-63
2022/12/09 05:56:02;;;;;;;28.17;19.80;;;6.50;99.90;;;;;;5033525;28;20431;-64
2022/12/09 05:58:28;;;;;;;26.63;17.87;;;6.50;99.90;;;;;;5035543;28;20171;-63
2022/12/09 06:00:57;;;;;;;25.63;18.40;;;6.60;99.90;;;;;;5033745;28;20445;-63
2022/12/09 06:03:23;;;;;;;25.00;17.87;;;6.60;99.90;;;;;;5034422;28;20430;-63
2022/12/09 06:05:48;;;;;;;28.23;19.00;;;6.60;99.90;;;;;;5034510;28;20417;-63
2022/12/09 06:08:14;;;;;;;29.53;18.27;;;6.70;99.90;;;;;;5034436;28;20439;-63
2022/12/09 06:10:40;;;;;;;29.73;18.20;;;6.70;99.90;;;;;;5033314;28;20218;-64
2022/12/09 06:13:07;;;;;;;22.00;16.90;;;6.80;99.90;;;;;;5034524;28;20441;-63
2022/12/09 06:15:33;;;;;;;26.90;17.77;;;6.80;99.90;;;;;;5033959;28;20504;-66
2022/12/09 06:17:59;;;;;;;34.00;20.27;;;6.90;99.90;;;;;;5032630;28;20905;-63
2022/12/09 06:20:25;;;;;;;25.00;18.30;;;6.90;99.90;;;;;;5034112;28;20485;-63
2022/12/09 06:22:51;;;;;;;23.00;17.60;;;6.90;99.90;;;;;;5033755;28;20447;-63
2022/12/09 06:25:16;;;;;;;24.47;18.57;;;6.90;99.90;;;;;;5033770;28;20259;-63
2022/12/09 06:27:42;;;;;;;29.17;18.70;;;6.90;99.90;;;;;;5032677;28;20188;-63
2022/12/09 06:30:08;;;;;;;25.50;18.70;;;6.90;99.90;;;;;;5034528;28;20229;-63
2022/12/09 06:32:34;;;;;;;25.57;18.60;;;6.90;99.90;;;;;;5032006;28;20204;-64
2022/12/09 06:34:59;;;;;;;25.17;19.20;;;6.90;99.90;;;;;;5030451;28;20459;-64
2022/12/09 06:37:25;;;;;;;24.33;16.47;;;6.90;99.90;;;;;;5031647;28;20617;-63
2022/12/09 06:39:51;;;;;;;24.03;20.53;;;6.90;99.90;;;;;;5015262;28;20192;-63
2022/12/09 06:42:17;;;;;;;27.50;18.77;;;6.90;99.90;;;;;;5025472;28;20187;-63
2022/12/09 06:44:43;;;;;;;26.00;22.07;;;6.90;99.90;;;;;;5032837;28;20255;-64
2022/12/09 06:47:08;;;;;;;26.07;18.97;;;6.90;99.90;;;;;;5031296;28;20522;-64
2022/12/09 06:49:34;;;;;;;24.40;17.33;;;7.00;99.90;;;;;;5028614;28;20405;-67
2022/12/09 06:52:00;;;;;;;25.03;18.10;;;6.90;99.90;;;;;;5028232;28;20185;-64
2022/12/09 06:54:26;;;;;;;24.60;18.63;;;6.90;99.90;;;;;;5032110;28;20929;-64
2022/12/09 06:56:52;;;;;;;22.73;17.80;;;6.90;99.90;;;;;;5030640;28;20183;-64
2022/12/09 06:59:17;;;;;;;27.80;18.50;;;6.90;99.90;;;;;;5031417;28;20659;-64
2022/12/09 07:01:44;;;;;;;24.90;16.47;;;7.00;99.90;;;;;;5029000;28;20184;-64
2022/12/09 07:04:13;;;;;;;29.50;21.20;;;6.90;99.90;;;;;;5021098;28;20204;-65
2022/12/09 07:06:43;;;;;;;23.10;18.30;;;6.90;99.90;;;;;;5032112;28;20931;-65
2022/12/09 07:09:13;;;;;;;29.00;18.30;;;6.90;99.90;;;;;;5021477;28;20458;-64
2022/12/09 07:11:41;;;;;;;22.67;17.07;;;6.80;99.90;;;;;;5031139;28;21039;-64
2022/12/09 07:14:07;;;;;;;29.87;17.50;;;6.80;99.90;;;;;;5027358;28;20788;-62
2022/12/09 07:16:34;;;;;;;27.80;20.13;;;6.60;99.90;;;;;;5046084;28;20745;-62
2022/12/09 07:19:00;;;;;;;26.30;19.17;;;6.60;99.90;;;;;;5028140;28;20545;-62
2022/12/09 07:21:27;;;;;;;22.03;17.10;;;6.60;99.90;;;;;;5029861;28;20441;-63
2022/12/09 07:23:53;;;;;;;25.70;17.87;;;6.60;99.90;;;;;;5033486;28;20877;-63
2022/12/09 07:26:19;;;;;;;27.87;18.50;;;6.60;99.90;;;;;;5032082;28;20845;-62
2022/12/09 07:28:49;;;;;;;25.43;18.50;;;6.60;99.90;;;;;;5031444;28;20415;-62
2022/12/09 07:31:23;;;;;;;23.97;17.07;;;6.60;99.90;;;;;;5024034;28;20808;-62
2022/12/09 07:33:50;;;;;;;26.20;19.60;;;6.50;99.90;;;;;;5029708;28;20449;-63
2022/12/09 07:36:17;;;;;;;25.98;21.20;;;6.60;99.90;;;;;;5033148;28;20425;-62
2022/12/09 07:38:43;;;;;;;27.30;17.97;;;6.50;99.90;;;;;;5032200;28;20191;-63
2022/12/09 07:41:16;;;;;;;25.97;17.87;;;6.40;99.90;;;;;;5033401;28;20393;-62
2022/12/09 07:43:43;;;;;;;26.73;17.43;;;6.40;99.90;;;;;;5034530;28;20863;-63
2022/12/09 07:46:09;;;;;;;24.03;18.47;;;6.40;99.90;;;;;;5032414;28;20961;-62
2022/12/09 07:48:35;;;;;;;26.47;17.60;;;6.50;99.90;;;;;;5029812;28;20397;-62
2022/12/09 07:51:02;;;;;;;27.43;19.60;;;6.50;99.90;;;;;;5030664;28;20227;-62
2022/12/09 07:53:28;;;;;;;27.37;18.30;;;6.50;99.90;;;;;;5024155;28;20846;-62
2022/12/09 07:55:55;;;;;;;37.83;18.60;;;6.50;99.90;;;;;;5032171;28;20403;-62
2022/12/09 07:58:21;;;;;;;32.67;18.27;;;6.50;99.90;;;;;;5033047;28;20394;-65
2022/12/09 08:00:46;;;;;;;30.07;19.00;;;6.50;99.90;;;;;;5032007;28;20446;-63
2022/12/09 08:03:12;;;;;;;26.13;18.50;;;6.50;99.90;;;;;;5032623;28;20540;-62
2022/12/09 08:05:49;;;;;;;24.47;17.77;;;6.50;99.90;;;;;;5029096;28;20180;-63
2022/12/09 08:08:14;;;;;;;27.00;19.60;;;6.50;99.90;;;;;;5029813;28;20427;-62
2022/12/09 08:10:40;;;;;;;26.40;18.43;;;6.40;99.90;;;;;;5031913;28;20938;-63
2022/12/09 08:13:06;;;;;;;23.30;17.70;;;6.40;99.90;;;;;;5033488;28;20188;-63
2022/12/09 08:15:32;;;;;;;25.47;20.43;;;6.40;99.90;;;;;;5031062;28;20405;-62
2022/12/09 08:17:57;;;;;;;24.17;18.00;;;6.40;99.90;;;;;;5031794;28;20540;-62
2022/12/09 08:20:23;;;;;;;28.40;20.33;;;6.40;99.90;;;;;;5033338;28;20182;-62
2022/12/09 08:22:49;;;;;;;32.90;17.57;;;6.50;99.90;;;;;;5031758;28;20253;-62
2022/12/09 08:25:14;;;;;;;31.00;16.33;;;6.50;99.90;;;;;;5030425;28;20194;-62
2022/12/09 08:27:40;;;;;;;26.13;17.03;;;6.60;99.90;;;;;;5032517;28;20202;-63
2022/12/09 08:30:06;;;;;;;25.90;16.57;;;6.60;99.90;;;;;;5032047;28;20235;-63
2022/12/09 08:32:32;;;;;;;23.00;17.40;;;6.50;99.90;;;;;;5031931;28;20283;-64
2022/12/09 08:34:58;;;;;;;29.37;19.27;;;6.60;99.90;;;;;;5032655;28;20571;-64
2022/12/09 08:37:23;;;;;;;26.43;18.60;;;6.60;99.90;;;;;;5024400;28;20189;-66
2022/12/09 08:39:49;;;;;;;25.60;22.90;;;6.90;99.90;;;;;;5030223;28;20557;-65
2022/12/09 08:42:15;;;;;;;22.30;18.13;;;8.40;99.90;;;;;;5030092;28;20570;-65
2022/12/09 08:44:41;;;;;;;21.40;17.43;;;9.30;99.90;;;;;;5030703;28;20212;-66
2022/12/09 08:47:07;;;;;;;22.07;17.53;;;9.80;99.90;;;;;;5027735;28;20426;-65
2022/12/09 08:49:33;;;;;;;21.20;17.50;;;10.20;99.90;;;;;;5023302;28;20172;-65
2022/12/09 08:51:58;;;;;;;23.53;18.73;;;10.80;99.90;;;;;;5024997;28;20572;-66
2022/12/09 08:54:24;;;;;;;21.53;18.77;;;11.10;99.90;;;;;;5021690;28;20274;-66
2022/12/09 08:56:55;;;;;;;21.37;17.40;;;11.50;99.90;;;;;;5030881;28;20185;-66
2022/12/09 08:59:22;;;;;;;22.93;19.33;;;11.80;99.90;;;;;;5031460;28;20802;-65
2022/12/09 09:01:48;;;;;;;18.93;16.80;;;12.30;99.90;;;;;;5031139;28;20417;-66
2022/12/09 09:04:16;;;;;;;22.80;18.30;;;12.70;99.90;;;;;;5032597;28;20493;-65
2022/12/09 09:06:44;;;;;;;23.03;17.80;;;12.90;99.90;;;;;;5031190;28;20421;-66
2022/12/09 09:09:12;;;;;;;19.93;17.07;;;13.00;99.90;;;;;;5031790;28;20920;-66
2022/12/09 09:11:39;;;;;;;20.23;15.90;;;13.20;99.90;;;;;;5044975;28;20461;-65
2022/12/09 09:14:07;;;;;;;19.30;16.53;;;13.30;99.90;;;;;;5031139;28;20429;-65
2022/12/09 09:16:33;;;;;;;18.33;16.40;;;13.50;99.60;;;;;;5026293;28;20937;-66
2022/12/09 09:18:59;;;;;;;27.03;17.70;;;13.60;98.20;;;;;;5028854;28;20526;-65
2022/12/09 09:21:25;;;;;;;21.40;17.50;;;13.60;93.20;;;;;;5033269;28;20435;-66
2022/12/09 09:23:51;;;;;;;20.73;16.17;;;13.70;96.90;;;;;;5034743;28;20457;-65
2022/12/09 09:26:21;;;;;;;25.83;20.80;;;13.70;97.30;;;;;;5035457;28;20429;-65
2022/12/09 09:28:47;;;;;;;18.50;16.50;;;13.70;96.40;;;;;;5034463;28;20758;-67
2022/12/09 09:31:16;;;;;;;20.17;16.90;;;13.80;96.20;;;;;;5035438;28;20456;-66
2022/12/09 09:33:43;;;;;;;20.10;18.00;;;13.90;96.40;;;;;;5028749;28;20875;-65
2022/12/09 09:36:15;;;;;;;105.57;64.33;;;13.90;93.20;;;;;;5035550;28;20426;-64
2022/12/09 09:38:40;;;;;;;94.93;59.63;;;13.70;87.10;;;;;;5035388;28;20424;-64
2022/12/09 09:41:33;;;;;;;47.43;32.80;;;13.20;81.90;;;;;;5034827;28;20426;-65
2022/12/09 09:43:59;;;;;;;22.23;18.27;;;12.70;81.60;;;;;;5034547;28;20232;-65
2022/12/09 09:46:38;;;;;;;22.87;17.80;;;12.10;82.40;;;;;;5038315;28;20414;-65
2022/12/09 09:49:09;;;;;;;22.07;16.90;;;11.60;84.10;;;;;;5042997;28;20441;-65
2022/12/09 09:51:35;;;;;;;20.03;16.43;;;11.20;85.90;;;;;;5017722;28;20494;-65
2022/12/09 09:54:00;;;;;;;24.83;17.13;;;10.80;87.30;;;;;;5035166;28;20432;-65
2022/12/09 09:56:39;;;;;;;24.07;18.33;;;10.30;89.20;;;;;;5033985;28;20452;-64
2022/12/09 09:59:25;;;;;;;22.90;18.13;;;9.90;92.00;;;;;;5033767;28;20176;-65
2022/12/09 10:02:20;;;;;;;25.03;18.50;;;9.60;92.80;;;;;;5034682;28;20460;-64
2022/12/09 10:05:14;;;;;;;23.97;17.93;;;9.30;94.30;;;;;;5012912;28;20612;-64
2022/12/09 10:07:43;;;;;;;20.77;17.30;;;9.10;95.20;;;;;;5028467;28;20425;-63
2022/12/09 10:10:45;;;;;;;22.57;18.00;;;8.90;95.60;;;;;;5034776;28;20453;-64
2022/12/09 10:13:20;;;;;;;25.10;17.33;;;8.60;96.50;;;;;;5035637;28;20405;-63
2022/12/09 10:16:20;;;;;;;27.20;16.93;;;8.50;97.60;;;;;;5035050;28;20812;-66
2022/12/09 10:18:51;;;;;;;222.13;125.27;;;8.30;98.60;;;;;;5034018;28;20786;-70
2022/12/09 10:21:19;;;;;;;32.97;22.93;;;8.20;99.30;;;;;;5034682;28;20449;-63
2022/12/09 10:23:46;;;;;;;22.77;16.73;;;8.20;99.90;;;;;;5033166;28;20504;-67
2022/12/09 10:26:29;;;;;;;21.13;15.83;;;8.10;99.50;;;;;;5029203;28;21054;-64
2022/12/09 10:29:15;;;;;;;22.80;16.90;;;8.00;99.00;;;;;;5032328;28;20476;-63
2022/12/09 10:31:41;;;;;;;24.03;16.37;;;8.00;99.50;;;;;;5023425;28;20499;-63
2022/12/09 10:34:09;;;;;;;23.03;16.73;;;8.10;99.90;;;;;;5033651;28;20437;-63
2022/12/09 10:36:42;;;;;;;23.13;16.30;;;8.40;99.90;;;;;;5033869;28;20178;-64
2022/12/09 10:39:17;;;;;;;21.00;16.70;;;8.90;99.90;;;;;;5033004;28;20836;-63
2022/12/09 10:44:40;;;;;;;20.27;15.53;;;10.20;97.30;;;;;;5034047;28;20436;-64
2022/12/09 10:47:26;;;;;;;20.77;16.80;;;10.90;96.80;;;;;;5034357;28;20427;-64
2022/12/09 10:49:54;;;;;;;20.70;18.33;;;11.20;96.40;;;;;;5033386;28;20452;-64
2022/12/09 10:52:43;;;;;;;21.60;18.07;;;11.10;94.30;;;;;;5034508;28;20437;-63
2022/12/09 10:55:32;;;;;;;21.23;17.00;;;10.90;94.40;;;;;;5028545;28;20468;-63
2022/12/09 10:58:14;;;;;;;21.43;17.70;;;10.90;96.00;;;;;;5014187;28;20835;-63
2022/12/09 11:00:39;;;;;;;24.50;18.93;;;11.00;97.20;;;;;;5028464;28;20439;-64
2022/12/09 11:03:23;;;;;;;22.57;18.13;;;11.00;95.80;;;;;;5033355;28;20514;-64
2022/12/09 11:05:55;;;;;;;23.93;17.90;;;11.00;95.10;;;;;;5033075;28;20180;-66
2022/12/09 11:08:21;;;;;;;21.07;16.60;;;10.90;95.20;;;;;;5033762;28;20427;-64
2022/12/09 11:10:48;;;;;;;21.70;17.10;;;10.90;95.50;;;;;;5034151;28;20457;-67
2022/12/09 11:13:17;;;;;;;23.83;17.87;;;10.80;94.50;;;;;;5033577;28;20431;-64
2022/12/09 11:15:48;;;;;;;23.53;17.73;;;10.60;94.30;;;;;;5033191;28;20510;-64
2022/12/09 11:18:34;;;;;;;23.10;18.10;;;10.50;93.80;;;;;;5033766;28;20503;-64
2022/12/09 11:21:26;;;;;;;22.60;17.87;;;10.30;94.60;;;;;;5033360;28;20901;-64
2022/12/09 11:23:52;;;;;;;20.30;16.10;;;10.00;95.90;;;;;;5032525;28;20512;-64
2022/12/09 11:26:24;;;;;;;16.00;12.87;;;9.70;96.40;;;;;;5032449;28;21015;-64
2022/12/09 11:29:03;;;;;;;17.23;13.20;;;9.60;94.90;;;;;;5033490;28;20773;-64
2022/12/09 11:31:33;;;;;;;17.00;13.10;;;9.40;95.10;;;;;;5034299;28;20484;-64
2022/12/09 11:34:14;;;;;;;13.53;11.80;;;9.30;95.10;;;;;;5032307;28;20924;-64
2022/12/09 11:36:47;;;;;;;13.90;12.50;;;9.20;94.80;;;;;;5033221;28;20432;-64
2022/12/09 11:39:35;;;;;;;14.10;11.20;;;9.20;95.20;;;;;;5033429;28;20398;-64
2022/12/09 11:42:24;;;;;;;14.97;11.87;;;9.20;94.00;;;;;;5031562;28;20787;-64
2022/12/09 11:45:05;;;;;;;13.43;11.03;;;9.20;94.70;;;;;;5030548;28;20520;-65
2022/12/09 11:47:45;;;;;;;16.10;12.93;;;9.40;95.00;;;;;;5033090;28;20437;-64
2022/12/09 11:50:21;;;;;;;16.40;12.27;;;9.70;96.70;;;;;;5032989;28;20459;-64
2022/12/09 11:53:10;;;;;;;13.23;11.30;;;10.00;95.00;;;;;;5024060;28;20828;-64
2022/12/09 11:55:50;;;;;;;13.57;10.83;;;10.30;94.20;;;;;;5032763;28;20468;-64
2022/12/09 11:58:48;;;;;;;12.00;10.40;;;10.40;90.20;;;;;;5033130;28;20406;-64
2022/12/09 12:01:19;;;;;;;12.77;10.07;;;10.60;90.10;;;;;;5030368;28;20443;-64
2022/12/09 12:03:48;;;;;;;9.90;8.40;;;10.70;88.40;;;;;;5032607;28;20440;-64
2022/12/09 12:06:41;;;;;;;15.83;12.43;;;10.70;87.50;;;;;;5032897;28;20418;-64
2022/12/09 12:09:18;;;;;;;16.60;14.17;;;10.80;90.70;;;;;;5032915;28;20397;-64
2022/12/09 12:11:54;;;;;;;16.80;15.00;;;10.80;90.80;;;;;;5031761;28;20536;-64
2022/12/09 12:14:26;;;;;;;18.60;14.60;;;10.90;93.40;;;;;;5031871;28;20805;-64
2022/12/09 12:17:18;;;;;;;17.03;14.73;;;10.80;95.00;;;;;;5032752;28;20436;-65
2022/12/09 12:19:48;;;;;;;18.10;15.07;;;10.90;94.50;;;;;;5031693;28;20504;-64
2022/12/09 12:22:36;;;;;;;17.70;14.90;;;10.90;94.10;;;;;;5031249;28;20963;-64
2022/12/09 12:25:19;;;;;;;17.70;13.13;;;11.10;93.40;;;;;;5031743;28;20540;-64
2022/12/09 12:28:05;;;;;;;14.97;13.37;;;11.00;93.40;;;;;;5032334;28;20495;-64
2022/12/09 12:30:58;;;;;;;15.00;13.40;;;10.90;93.40;;;;;;5032113;28;20453;-64
2022/12/09 12:33:33;;;;;;;14.20;12.40;;;11.00;93.40;;;;;;5032850;28;20393;-64
2022/12/09 12:36:17;;;;;;;15.30;13.43;;;11.00;92.30;;;;;;5031310;28;20998;-64
2022/12/09 12:39:11;;;;;;;17.33;12.53;;;11.00;92.50;;;;;;5032293;28;20460;-64
2022/12/09 12:41:59;;;;;;;15.13;13.53;;;10.80;92.10;;;;;;5031534;28;21012;-64
2022/12/09 12:47:54;;;;;;;17.43;13.10;;;10.60;93.80;;;;;;5013309;28;20492;-64
2022/12/09 12:50:22;;;;;;;17.77;14.60;;;10.50;92.90;;;;;;5031092;28;20460;-64
2022/12/09 12:53:15;;;;;;;22.53;18.17;;;10.40;96.00;;;;;;5031409;28;21030;-64
2022/12/09 12:56:11;;;;;;;22.00;16.20;;;10.40;98.00;;;;;;5030842;28;20948;-64
2022/12/09 12:59:02;;;;;;;24.43;17.93;;;10.20;97.80;;;;;;5029715;28;20893;-64
2022/12/09 13:01:33;;;;;;;24.17;17.30;;;10.10;96.00;;;;;;5032202;28;20434;-65